Reliance, South Dakota
Current Conditions -  °F | °C
As of 10:55 PM on Sunday 21 Dec 2014 (Local Time) from K9V9 Reporting Station
Overcast Overcast  
Wind Chill: 29°   Ceiling: 9000
Heat Index: 35°   Visibility: 10mi
Dew Point: 32°   Wind: 8mph
Humidity: 88%   Direction: 220°SW
Pressure: 29.42"   Gusts: NA
Location:  43.88°N, 99.6°W
Report Text: K9V9 220455Z AUTO 22007KT 10SM OVC090 02/00 A2942 RMK AO2 T00171001
Loading
Personal Weather Stations






























Interactive Weather Map New forecast layout! Learn more

10-Day Weather Forecast

Advertisements
Track Severe Weather on mobile